Pagrindinis puslapis
METAR-TAF:

METAR-TAF

Oro uostai :

Marė, Naujoji Kaledonija

platuma: 21-28-53S, ilguma: 168-02-15E, Aukštis: 42 m

METAR: trūkstamas

Laikas: 17:58 (06:58 UTC)

Prognozė

Ataskaita buvo paskelbta 13 valandos ir 58 minutes, ne 17:00 UTC
Prognozė galioja nuo 26 metu 18 UTC su 27 metu 18 UTC
Vėjas 10 kt iš Pietryčių
Matomumas 10 km arba daugiau
Išsisklaidę debesys ne aukštis 2400 ft
Tikimybė 40% :
Laikinai
nuo 27 metu 03 UTC su 27 metu 05 UTC
lietus

TAF: NWWR 261700Z 2618/2718 14010KT 9999 SCT024 PROB40 TEMPO 2703/2705 SHRA

Orai ataskaitas ir orų prognozės (METAR, TAF).

turimą stotys yra geltonos ir raudonos taškus žemėlapyje.

Perkelti pele per norėdami pamatyti stoties vardą.

Tada spustelėkite, norėdami matyti oro stebėjimo ir prognozės.

Norėdami pakeisti žemėlapį: spustelėkite ant žalios mygtukų su juodo kryžiaus žemyn,; žalią mygtuką su brūkšneliu, jei norite nutolinti; arba žalių rodyklių gretimoms žemėlapius.


METAR-TAF: